sensor_id;sensor_type;location;lat;lon;timestamp;pressure;altitude;pressure_sealevel;temperature;humidity
72116;BME280;59991;52.140;5.428;2023-04-27T00:00:23;102166.59;;;3.47;82.20
72116;BME280;59991;52.140;5.428;2023-04-27T00:00:54;102170.09;;;3.48;82.28
72116;BME280;59991;52.140;5.428;2023-04-27T00:01:26;102165.00;;;3.46;81.97
72116;BME280;59991;52.140;5.428;2023-04-27T00:01:57;102165.00;;;3.46;82.20
72116;BME280;59991;52.140;5.428;2023-04-27T00:02:29;102162.63;;;3.45;82.42
72116;BME280;59991;52.140;5.428;2023-04-27T00:03:00;102165.00;;;3.46;82.22
72116;BME280;59991;52.140;5.428;2023-04-27T00:03:36;102170.38;;;3.46;82.20
72116;BME280;59991;52.140;5.428;2023-04-27T00:04:08;102168.81;;;3.45;82.05
72116;BME280;59991;52.140;5.428;2023-04-27T00:04:40;102178.00;;;3.44;81.95
72116;BME280;59991;52.140;5.428;2023-04-27T00:05:12;102174.50;;;3.44;81.71
72116;BME280;59991;52.140;5.428;2023-04-27T00:05:43;102168.59;;;3.42;81.92
72116;BME280;59991;52.140;5.428;2023-04-27T00:06:15;102174.00;;;3.42;82.17
72116;BME280;59991;52.140;5.428;2023-04-27T00:06:47;102181.28;;;3.41;82.05
72116;BME280;59991;52.140;5.428;2023-04-27T00:07:19;102171.59;;;3.40;81.96
72116;BME280;59991;52.140;5.428;2023-04-27T00:07:50;102178.88;;;3.40;81.92
72116;BME280;59991;52.140;5.428;2023-04-27T00:08:21;102175.38;;;3.39;81.98
72116;BME280;59991;52.140;5.428;2023-04-27T00:08:53;102170.00;;;3.39;82.10
72116;BME280;59991;52.140;5.428;2023-04-27T00:09:24;102173.78;;;3.38;82.15
72116;BME280;59991;52.140;5.428;2023-04-27T00:09:56;102174.88;;;3.37;82.19
72116;BME280;59991;52.140;5.428;2023-04-27T00:10:28;102175.16;;;3.36;82.23
72116;BME280;59991;52.140;5.428;2023-04-27T00:10:59;102172.47;;;3.36;82.57
72116;BME280;59991;52.140;5.428;2023-04-27T00:11:31;102179.25;;;3.33;82.57
72116;BME280;59991;52.140;5.428;2023-04-27T00:12:02;102174.97;;;3.32;82.68
72116;BME280;59991;52.140;5.428;2023-04-27T00:12:34;102175.25;;;3.31;82.64
72116;BME280;59991;52.140;5.428;2023-04-27T00:13:06;102175.53;;;3.29;82.71
72116;BME280;59991;52.140;5.428;2023-04-27T00:13:37;102180.13;;;3.29;82.88
72116;BME280;59991;52.140;5.428;2023-04-27T00:14:08;102177.44;;;3.29;82.71
72116;BME280;59991;52.140;5.428;2023-04-27T00:14:40;102171.56;;;3.27;82.80
72116;BME280;59991;52.140;5.428;2023-04-27T00:15:11;102176.16;;;3.26;82.62
72116;BME280;59991;52.140;5.428;2023-04-27T00:15:43;102173.75;;;3.25;82.80
72116;BME280;59991;52.140;5.428;2023-04-27T00:16:15;102184.53;;;3.25;82.91
72116;BME280;59991;52.140;5.428;2023-04-27T00:16:47;102178.34;;;3.24;82.96
72116;BME280;59991;52.140;5.428;2023-04-27T00:17:18;102176.75;;;3.23;82.92
72116;BME280;59991;52.140;5.428;2023-04-27T00:17:50;102179.72;;;3.22;82.90
72116;BME280;59991;52.140;5.428;2023-04-27T00:18:21;102171.63;;;3.22;82.78
72116;BME280;59991;52.140;5.428;2023-04-27T00:18:53;102172.72;;;3.21;82.99
72116;BME280;59991;52.140;5.428;2023-04-27T00:19:26;102169.25;;;3.20;82.75
72116;BME280;59991;52.140;5.428;2023-04-27T00:19:58;102170.34;;;3.19;82.80
72116;BME280;59991;52.140;5.428;2023-04-27T00:20:30;102173.31;;;3.18;82.77
72116;BME280;59991;52.140;5.428;2023-04-27T00:21:02;102173.59;;;3.16;82.58
72116;BME280;59991;52.140;5.428;2023-04-27T00:21:33;102181.69;;;3.16;82.78
72116;BME280;59991;52.140;5.428;2023-04-27T00:22:05;102178.50;;;3.14;82.85
72116;BME280;59991;52.140;5.428;2023-04-27T00:22:38;102173.91;;;3.15;82.32
72116;BME280;59991;52.140;5.428;2023-04-27T00:23:09;102168.81;;;3.13;82.74
72116;BME280;59991;52.140;5.428;2023-04-27T00:23:41;102173.09;;;3.14;82.67
72116;BME280;59991;52.140;5.428;2023-04-27T00:24:12;102172.28;;;3.13;82.44
72116;BME280;59991;52.140;5.428;2023-04-27T00:24:44;102177.97;;;3.12;82.61
72116;BME280;59991;52.140;5.428;2023-04-27T00:25:15;102178.78;;;3.12;82.75
72116;BME280;59991;52.140;5.428;2023-04-27T00:25:47;102179.59;;;3.13;82.69
72116;BME280;59991;52.140;5.428;2023-04-27T00:26:18;102175.28;;;3.12;82.35
72116;BME280;59991;52.140;5.428;2023-04-27T00:26:50;102172.59;;;3.12;82.27
72116;BME280;59991;52.140;5.428;2023-04-27T00:27:22;102178.78;;;3.12;82.23
72116;BME280;59991;52.140;5.428;2023-04-27T00:27:53;102179.88;;;3.11;82.42
72116;BME280;59991;52.140;5.428;2023-04-27T00:28:25;102179.06;;;3.11;82.24
72116;BME280;59991;52.140;5.428;2023-04-27T00:28:56;102178.28;;;3.10;82.26
72116;BME280;59991;52.140;5.428;2023-04-27T00:29:27;102179.06;;;3.11;82.54
72116;BME280;59991;52.140;5.428;2023-04-27T00:29:59;102173.97;;;3.09;82.60
72116;BME280;59991;52.140;5.428;2023-04-27T00:30:30;102175.88;;;3.09;82.85
72116;BME280;59991;52.140;5.428;2023-04-27T00:31:02;102171.56;;;3.08;82.79
72116;BME280;59991;52.140;5.428;2023-04-27T00:31:34;102171.56;;;3.08;82.59
72116;BME280;59991;52.140;5.428;2023-04-27T00:32:06;102176.97;;;3.08;82.71
72116;BME280;59991;52.140;5.428;2023-04-27T00:32:38;102175.38;;;3.07;82.60
72116;BME280;59991;52.140;5.428;2023-04-27T00:33:09;102173.78;;;3.06;82.81
72116;BME280;59991;52.140;5.428;2023-04-27T00:33:41;102168.97;;;3.03;82.84
72116;BME280;59991;52.140;5.428;2023-04-27T00:34:12;102168.19;;;3.02;83.13
72116;BME280;59991;52.140;5.428;2023-04-27T00:34:44;102170.06;;;3.02;83.01
72116;BME280;59991;52.140;5.428;2023-04-27T00:35:15;102163.88;;;3.01;83.10
72116;BME280;59991;52.140;5.428;2023-04-27T00:35:47;102171.44;;;2.99;83.36
72116;BME280;59991;52.140;5.428;2023-04-27T00:36:18;102163.66;;;2.98;83.30
72116;BME280;59991;52.140;5.428;2023-04-27T00:36:50;102160.97;;;2.98;83.22
72116;BME280;59991;52.140;5.428;2023-04-27T00:37:21;102166.34;;;2.98;83.40
72116;BME280;59991;52.140;5.428;2023-04-27T00:37:53;102162.84;;;2.97;83.42
72116;BME280;59991;52.140;5.428;2023-04-27T00:38:26;102163.94;;;2.96;83.07
72116;BME280;59991;52.140;5.428;2023-04-27T00:38:57;102170.13;;;2.97;83.26
72116;BME280;59991;52.140;5.428;2023-04-27T00:39:29;102163.94;;;2.96;83.50
72116;BME280;59991;52.140;5.428;2023-04-27T00:40:03;102161.53;;;2.95;83.38
72116;BME280;59991;52.140;5.428;2023-04-27T00:40:34;102161.53;;;2.95;83.69
72116;BME280;59991;52.140;5.428;2023-04-27T00:41:07;102161.84;;;2.93;83.45
72116;BME280;59991;52.140;5.428;2023-04-27T00:41:38;102165.63;;;2.92;83.65
72116;BME280;59991;52.140;5.428;2023-04-27T00:42:10;102163.22;;;2.91;83.57
72116;BME280;59991;52.140;5.428;2023-04-27T00:42:45;102162.41;;;2.90;83.62
72116;BME280;59991;52.140;5.428;2023-04-27T00:43:17;102170.03;;;2.88;83.41
72116;BME280;59991;52.140;5.428;2023-04-27T00:43:48;102159.25;;;2.88;83.16
72116;BME280;59991;52.140;5.428;2023-04-27T00:44:24;102159.25;;;2.88;83.09
72116;BME280;59991;52.140;5.428;2023-04-27T00:44:56;102167.31;;;2.88;83.23
72116;BME280;59991;52.140;5.428;2023-04-27T00:45:28;102158.44;;;2.88;83.15
72116;BME280;59991;52.140;5.428;2023-04-27T00:46:00;102165.41;;;2.89;83.00
72116;BME280;59991;52.140;5.428;2023-04-27T00:46:33;102163.03;;;2.87;83.27
72116;BME280;59991;52.140;5.428;2023-04-27T00:47:04;102166.53;;;2.88;83.25
72116;BME280;59991;52.140;5.428;2023-04-27T00:47:36;102163.84;;;2.88;83.17
72116;BME280;59991;52.140;5.428;2023-04-27T00:48:10;102160.63;;;2.86;82.86
72116;BME280;59991;52.140;5.428;2023-04-27T00:48:42;102169.81;;;2.85;82.92
72116;BME280;59991;52.140;5.428;2023-04-27T00:49:14;102167.09;;;2.85;83.14
72116;BME280;59991;52.140;5.428;2023-04-27T00:49:46;102171.69;;;2.84;82.94
72116;BME280;59991;52.140;5.428;2023-04-27T00:50:26;102175.47;;;2.83;82.93
72116;BME280;59991;52.140;5.428;2023-04-27T00:50:59;102170.88;;;2.84;83.06
72116;BME280;59991;52.140;5.428;2023-04-27T00:51:31;102171.97;;;2.83;83.33
72116;BME280;59991;52.140;5.428;2023-04-27T00:52:02;102177.38;;;2.83;83.56
72116;BME280;59991;52.140;5.428;2023-04-27T00:52:37;102180.34;;;2.81;83.42
72116;BME280;59991;52.140;5.428;2023-04-27T00:53:09;102169.88;;;2.80;83.65
72116;BME280;59991;52.140;5.428;2023-04-27T00:53:41;102176.34;;;2.78;83.44
72116;BME280;59991;52.140;5.428;2023-04-27T00:54:19;102182.81;;;2.77;83.59
72116;BME280;59991;52.140;5.428;2023-04-27T00:54:51;102180.13;;;2.77;83.79
72116;BME280;59991;52.140;5.428;2023-04-27T00:55:23;102180.13;;;2.77;83.46
72116;BME280;59991;52.140;5.428;2023-04-27T00:55:54;102171.81;;;2.74;83.92
72116;BME280;59991;52.140;5.428;2023-04-27T00:56:28;102171.81;;;2.74;83.88
72116;BME280;59991;52.140;5.428;2023-04-27T00:57:00;102177.22;;;2.74;84.14
72116;BME280;59991;52.140;5.428;2023-04-27T00:57:32;102174.81;;;2.72;84.05
72116;BME280;59991;52.140;5.428;2023-04-27T00:58:04;102173.72;;;2.73;84.00
72116;BME280;59991;52.140;5.428;2023-04-27T00:58:36;102182.88;;;2.72;83.94
72116;BME280;59991;52.140;5.428;2023-04-27T00:59:07;102181.28;;;2.71;83.83
72116;BME280;59991;52.140;5.428;2023-04-27T00:59:39;102174.28;;;2.70;83.42
72116;BME280;59991;52.140;5.428;2023-04-27T01:00:10;102175.91;;;2.71;83.83
72116;BME280;59991;52.140;5.428;2023-04-27T01:00:43;102178.88;;;2.70;83.97
72116;BME280;59991;52.140;5.428;2023-04-27T01:01:15;102179.19;;;2.68;83.70
72116;BME280;59991;52.140;5.428;2023-04-27T01:01:47;102186.47;;;2.68;83.60
72116;BME280;59991;52.140;5.428;2023-04-27T01:02:19;102178.41;;;2.68;83.70
72116;BME280;59991;52.140;5.428;2023-04-27T01:02:52;102177.59;;;2.67;83.58
72116;BME280;59991;52.140;5.428;2023-04-27T01:03:25;102176.00;;;2.66;83.82
72116;BME280;59991;52.140;5.428;2023-04-27T01:03:57;102179.50;;;2.67;83.83
72116;BME280;59991;52.140;5.428;2023-04-27T01:04:29;102181.38;;;2.66;83.77
72116;BME280;59991;52.140;5.428;2023-04-27T01:05:02;102175.19;;;2.66;83.56
72116;BME280;59991;52.140;5.428;2023-04-27T01:05:35;102171.69;;;2.65;83.51
72116;BME280;59991;52.140;5.428;2023-04-27T01:06:07;102168.50;;;2.63;83.43
72116;BME280;59991;52.140;5.428;2023-04-27T01:06:38;102165.78;;;2.63;83.73
72116;BME280;59991;52.140;5.428;2023-04-27T01:07:10;102167.69;;;2.63;83.41
72116;BME280;59991;52.140;5.428;2023-04-27T01:07:42;102166.09;;;2.62;83.61
72116;BME280;59991;52.140;5.428;2023-04-27T01:08:13;102169.06;;;2.60;83.52
72116;BME280;59991;52.140;5.428;2023-04-27T01:08:45;102169.06;;;2.60;83.84
72116;BME280;59991;52.140;5.428;2023-04-27T01:09:17;102162.06;;;2.59;83.90
72116;BME280;59991;52.140;5.428;2023-04-27T01:09:50;102163.97;;;2.59;83.66
72116;BME280;59991;52.140;5.428;2023-04-27T01:10:21;102163.44;;;2.57;83.93
72116;BME280;59991;52.140;5.428;2023-04-27T01:10:53;102158.88;;;2.57;83.88
72116;BME280;59991;52.140;5.428;2023-04-27T01:11:24;102159.97;;;2.56;83.88
72116;BME280;59991;52.140;5.428;2023-04-27T01:11:56;102161.84;;;2.56;84.15
72116;BME280;59991;52.140;5.428;2023-04-27T01:12:28;102156.47;;;2.56;84.06
72116;BME280;59991;52.140;5.428;2023-04-27T01:13:00;102161.06;;;2.55;83.84
72116;BME280;59991;52.140;5.428;2023-04-27T01:13:31;102158.66;;;2.54;84.10
72116;BME280;59991;52.140;5.428;2023-04-27T01:14:04;102156.75;;;2.54;83.88
72116;BME280;59991;52.140;5.428;2023-04-27T01:14:36;102158.66;;;2.54;83.81
72116;BME280;59991;52.140;5.428;2023-04-27T01:15:08;102157.03;;;2.53;84.12
72116;BME280;59991;52.140;5.428;2023-04-27T01:15:39;102152.75;;;2.52;84.19
72116;BME280;59991;52.140;5.428;2023-04-27T01:16:11;102148.44;;;2.51;83.84
72116;BME280;59991;52.140;5.428;2023-04-27T01:16:43;102158.44;;;2.50;84.03
72116;BME280;59991;52.140;5.428;2023-04-27T01:17:14;102148.78;;;2.49;83.66
72116;BME280;59991;52.140;5.428;2023-04-27T01:17:46;102155.25;;;2.48;84.19
72116;BME280;59991;52.140;5.428;2023-04-27T01:18:18;102157.94;;;2.48;83.91
72116;BME280;59991;52.140;5.428;2023-04-27T01:18:50;102155.25;;;2.48;83.94
72116;BME280;59991;52.140;5.428;2023-04-27T01:19:21;102155.53;;;2.47;84.11
72116;BME280;59991;52.140;5.428;2023-04-27T01:19:53;102154.72;;;2.46;84.02
72116;BME280;59991;52.140;5.428;2023-04-27T01:20:27;102155.53;;;2.47;84.04
72116;BME280;59991;52.140;5.428;2023-04-27T01:21:00;102153.94;;;2.46;83.89
72116;BME280;59991;52.140;5.428;2023-04-27T01:21:32;102159.31;;;2.46;84.08
72116;BME280;59991;52.140;5.428;2023-04-27T01:22:03;102146.13;;;2.44;84.00
72116;BME280;59991;52.140;5.428;2023-04-27T01:22:35;102153.41;;;2.43;83.86
72116;BME280;59991;52.140;5.428;2023-04-27T01:23:07;102159.59;;;2.44;83.72
72116;BME280;59991;52.140;5.428;2023-04-27T01:23:38;102161.19;;;2.45;83.72
72116;BME280;59991;52.140;5.428;2023-04-27T01:24:10;102157.72;;;2.45;83.86
72116;BME280;59991;52.140;5.428;2023-04-27T01:24:41;102158.78;;;2.43;83.91
72116;BME280;59991;52.140;5.428;2023-04-27T01:25:13;102162.56;;;2.42;83.79
72116;BME280;59991;52.140;5.428;2023-04-27T01:25:44;102160.97;;;2.41;83.56
72116;BME280;59991;52.140;5.428;2023-04-27T01:26:16;102162.88;;;2.41;83.94
72116;BME280;59991;52.140;5.428;2023-04-27T01:26:48;102169.34;;;2.40;83.81
72116;BME280;59991;52.140;5.428;2023-04-27T01:27:22;102165.84;;;2.39;84.03
72116;BME280;59991;52.140;5.428;2023-04-27T01:27:54;102166.13;;;2.38;83.98
72116;BME280;59991;52.140;5.428;2023-04-27T01:28:25;102160.75;;;2.38;83.87
72116;BME280;59991;52.140;5.428;2023-04-27T01:28:57;102167.50;;;2.35;84.20
72116;BME280;59991;52.140;5.428;2023-04-27T01:29:28;102168.59;;;2.34;84.21
72116;BME280;59991;52.140;5.428;2023-04-27T01:29:59;102168.88;;;2.33;84.29
72116;BME280;59991;52.140;5.428;2023-04-27T01:30:31;102166.47;;;2.31;84.05
72116;BME280;59991;52.140;5.428;2023-04-27T01:31:02;102171.84;;;2.31;84.17
72116;BME280;59991;52.140;5.428;2023-04-27T01:31:34;102167.88;;;2.29;84.33
72116;BME280;59991;52.140;5.428;2023-04-27T01:32:06;102167.06;;;2.28;84.61
72116;BME280;59991;52.140;5.428;2023-04-27T01:32:38;102166.28;;;2.28;84.66
72116;BME280;59991;52.140;5.428;2023-04-27T01:33:09;102172.75;;;2.27;84.22
72116;BME280;59991;52.140;5.428;2023-04-27T01:33:41;102174.63;;;2.26;84.78
72116;BME280;59991;52.140;5.428;2023-04-27T01:34:12;102175.72;;;2.25;84.45
72116;BME280;59991;52.140;5.428;2023-04-27T01:34:44;102171.44;;;2.24;84.51
72116;BME280;59991;52.140;5.428;2023-04-27T01:35:16;102174.41;;;2.23;84.58
72116;BME280;59991;52.140;5.428;2023-04-27T01:35:47;102173.59;;;2.22;84.50
72116;BME280;59991;52.140;5.428;2023-04-27T01:36:19;102173.59;;;2.22;84.76
72116;BME280;59991;52.140;5.428;2023-04-27T01:36:50;102180.88;;;2.22;84.27
72116;BME280;59991;52.140;5.428;2023-04-27T01:37:22;102172.00;;;2.21;84.46
72116;BME280;59991;52.140;5.428;2023-04-27T01:37:53;102172.81;;;2.22;84.71
72116;BME280;59991;52.140;5.428;2023-04-27T01:38:26;102167.72;;;2.20;84.47
72116;BME280;59991;52.140;5.428;2023-04-27T01:38:58;102171.19;;;2.21;84.39
72116;BME280;59991;52.140;5.428;2023-04-27T01:39:29;102162.31;;;2.20;84.37
72116;BME280;59991;52.140;5.428;2023-04-27T01:40:01;102170.41;;;2.20;84.15
72116;BME280;59991;52.140;5.428;2023-04-27T01:40:34;102160.72;;;2.19;84.35
72116;BME280;59991;52.140;5.428;2023-04-27T01:41:06;102161.53;;;2.20;84.21
72116;BME280;59991;52.140;5.428;2023-04-27T01:41:39;102159.91;;;2.19;84.11
72116;BME280;59991;52.140;5.428;2023-04-27T01:42:11;102158.03;;;2.19;84.02
72116;BME280;59991;52.140;5.428;2023-04-27T01:42:42;102159.91;;;2.19;84.14
72116;BME280;59991;52.140;5.428;2023-04-27T01:43:14;102161.81;;;2.18;84.49
72116;BME280;59991;52.140;5.428;2023-04-27T01:43:45;102151.03;;;2.18;84.33
72116;BME280;59991;52.140;5.428;2023-04-27T01:44:17;102155.63;;;2.18;84.58
72116;BME280;59991;52.140;5.428;2023-04-27T01:44:50;102160.19;;;2.17;84.54
72116;BME280;59991;52.140;5.428;2023-04-27T01:45:22;102159.41;;;2.17;84.68
72116;BME280;59991;52.140;5.428;2023-04-27T01:45:54;102159.41;;;2.17;84.76
72116;BME280;59991;52.140;5.428;2023-04-27T01:46:25;102155.09;;;2.16;84.60
72116;BME280;59991;52.140;5.428;2023-04-27T01:46:57;102149.72;;;2.16;84.72
72116;BME280;59991;52.140;5.428;2023-04-27T01:47:28;102156.19;;;2.15;84.42
72116;BME280;59991;52.140;5.428;2023-04-27T01:48:00;102151.63;;;2.15;84.34
72116;BME280;59991;52.140;5.428;2023-04-27T01:48:32;102150.81;;;2.15;84.37
72116;BME280;59991;52.140;5.428;2023-04-27T01:49:04;102149.22;;;2.14;84.45
72116;BME280;59991;52.140;5.428;2023-04-27T01:49:36;102151.09;;;2.13;84.23
72116;BME280;59991;52.140;5.428;2023-04-27T01:50:07;102148.41;;;2.13;84.24
72116;BME280;59991;52.140;5.428;2023-04-27T01:50:39;102145.22;;;2.11;84.24
72116;BME280;59991;52.140;5.428;2023-04-27T01:51:11;102146.81;;;2.12;84.23
72116;BME280;59991;52.140;5.428;2023-04-27T01:51:42;102145.22;;;2.11;84.45
72116;BME280;59991;52.140;5.428;2023-04-27T01:52:14;102147.41;;;2.09;84.33
72116;BME280;59991;52.140;5.428;2023-04-27T01:52:45;102145.81;;;2.08;84.32
72116;BME280;59991;52.140;5.428;2023-04-27T01:53:17;102147.41;;;2.09;84.49
72116;BME280;59991;52.140;5.428;2023-04-27T01:53:49;102138.00;;;2.06;84.71
72116;BME280;59991;52.140;5.428;2023-04-27T01:54:20;102143.41;;;2.06;84.45
72116;BME280;59991;52.140;5.428;2023-04-27T01:54:51;102144.75;;;2.04;84.91
72116;BME280;59991;52.140;5.428;2023-04-27T01:55:23;102141.28;;;2.03;85.21
72116;BME280;59991;52.140;5.428;2023-04-27T01:55:55;102145.06;;;2.02;85.25
72116;BME280;59991;52.140;5.428;2023-04-27T01:56:27;102147.22;;;2.00;85.03
72116;BME280;59991;52.140;5.428;2023-04-27T01:56:58;102146.13;;;2.01;85.33
72116;BME280;59991;52.140;5.428;2023-04-27T01:57:29;102145.63;;;1.99;85.29
72116;BME280;59991;52.140;5.428;2023-04-27T01:58:01;102141.31;;;1.98;85.29
72116;BME280;59991;52.140;5.428;2023-04-27T01:58:33;102140.53;;;1.98;85.51
72116;BME280;59991;52.140;5.428;2023-04-27T01:59:04;102150.47;;;1.97;85.54
72116;BME280;59991;52.140;5.428;2023-04-27T01:59:35;102148.88;;;1.96;85.51
72116;BME280;59991;52.140;5.428;2023-04-27T02:00:07;102145.38;;;1.96;85.58
72116;BME280;59991;52.140;5.428;2023-04-27T02:00:39;102143.50;;;1.96;85.74
72116;BME280;59991;52.140;5.428;2023-04-27T02:01:11;102149.16;;;1.95;85.77
72116;BME280;59991;52.140;5.428;2023-04-27T02:01:42;102144.06;;;1.93;85.83
72116;BME280;59991;52.140;5.428;2023-04-27T02:02:13;102145.97;;;1.93;85.74
72116;BME280;59991;52.140;5.428;2023-04-27T02:02:45;102144.38;;;1.92;85.81
72116;BME280;59991;52.140;5.428;2023-04-27T02:03:17;102143.59;;;1.91;85.88
72116;BME280;59991;52.140;5.428;2023-04-27T02:03:49;102132.81;;;1.91;85.69
72116;BME280;59991;52.140;5.428;2023-04-27T02:04:20;102140.91;;;1.91;85.77
72116;BME280;59991;52.140;5.428;2023-04-27T02:04:52;102149.75;;;1.92;85.67
72116;BME280;59991;52.140;5.428;2023-04-27T02:05:23;102145.47;;;1.91;85.83
72116;BME280;59991;52.140;5.428;2023-04-27T02:05:55;102151.94;;;1.90;85.61
72116;BME280;59991;52.140;5.428;2023-04-27T02:06:26;102151.13;;;1.89;85.52
72116;BME280;59991;52.140;5.428;2023-04-27T02:06:58;102147.63;;;1.89;85.81
72116;BME280;59991;52.140;5.428;2023-04-27T02:07:29;102159.19;;;1.89;85.94
72116;BME280;59991;52.140;5.428;2023-04-27T02:08:01;102153.03;;;1.89;85.81
72116;BME280;59991;52.140;5.428;2023-04-27T02:08:33;102155.72;;;1.89;85.72
72116;BME280;59991;52.140;5.428;2023-04-27T02:09:05;102151.41;;;1.88;85.98
72116;BME280;59991;52.140;5.428;2023-04-27T02:09:37;102147.94;;;1.87;86.02
72116;BME280;59991;52.140;5.428;2023-04-27T02:10:08;102156.00;;;1.87;86.01
72116;BME280;59991;52.140;5.428;2023-04-27T02:10:40;102154.38;;;1.86;85.68
72116;BME280;59991;52.140;5.428;2023-04-27T02:11:11;102154.38;;;1.86;86.01
72116;BME280;59991;52.140;5.428;2023-04-27T02:11:43;102145.81;;;1.84;86.06
72116;BME280;59991;52.140;5.428;2023-04-27T02:12:14;102145.81;;;1.84;86.15
72116;BME280;59991;52.140;5.428;2023-04-27T02:12:46;102151.47;;;1.83;85.73
72116;BME280;59991;52.140;5.428;2023-04-27T02:13:18;102145.28;;;1.82;86.00
72116;BME280;59991;52.140;5.428;2023-04-27T02:13:50;102146.38;;;1.81;85.87
72116;BME280;59991;52.140;5.428;2023-04-27T02:14:21;102151.75;;;1.81;85.96
72116;BME280;59991;52.140;5.428;2023-04-27T02:14:53;102152.84;;;1.80;86.18
72116;BME280;59991;52.140;5.428;2023-04-27T02:15:24;102150.44;;;1.79;85.98
72116;BME280;59991;52.140;5.428;2023-04-27T02:15:56;102148.53;;;1.79;86.04
72116;BME280;59991;52.140;5.428;2023-04-27T02:16:27;102154.72;;;1.80;85.94
72116;BME280;59991;52.140;5.428;2023-04-27T02:16:59;102151.22;;;1.79;85.79
72116;BME280;59991;52.140;5.428;2023-04-27T02:17:33;102147.75;;;1.79;85.93
72116;BME280;59991;52.140;5.428;2023-04-27T02:18:05;102160.91;;;1.80;85.75
72116;BME280;59991;52.140;5.428;2023-04-27T02:18:36;102159.31;;;1.79;85.85
72116;BME280;59991;52.140;5.428;2023-04-27T02:19:08;102152.03;;;1.80;85.78
72116;BME280;59991;52.140;5.428;2023-04-27T02:19:40;102154.22;;;1.78;85.78
72116;BME280;59991;52.140;5.428;2023-04-27T02:20:11;102155.81;;;1.79;85.52
72116;BME280;59991;52.140;5.428;2023-04-27T02:20:43;102157.69;;;1.78;85.84
72116;BME280;59991;52.140;5.428;2023-04-27T02:21:14;102152.59;;;1.77;85.73
72116;BME280;59991;52.140;5.428;2023-04-27T02:21:46;102154.50;;;1.76;85.74
72116;BME280;59991;52.140;5.428;2023-04-27T02:22:18;102150.19;;;1.75;85.83
72116;BME280;59991;52.140;5.428;2023-04-27T02:22:49;102159.06;;;1.76;85.76
72116;BME280;59991;52.140;5.428;2023-04-27T02:23:20;102152.88;;;1.75;85.91
72116;BME280;59991;52.140;5.428;2023-04-27T02:23:52;102153.69;;;1.76;85.77
72116;BME280;59991;52.140;5.428;2023-04-27T02:24:24;102155.56;;;1.75;85.95
72116;BME280;59991;52.140;5.428;2023-04-27T02:24:55;102150.19;;;1.75;85.70
72116;BME280;59991;52.140;5.428;2023-04-27T02:25:27;102150.19;;;1.75;85.80
72116;BME280;59991;52.140;5.428;2023-04-27T02:25:59;102153.16;;;1.73;85.73
72116;BME280;59991;52.140;5.428;2023-04-27T02:26:31;102152.09;;;1.74;86.14
72116;BME280;59991;52.140;5.428;2023-04-27T02:27:03;102142.41;;;1.73;86.09
72116;BME280;59991;52.140;5.428;2023-04-27T02:27:36;102141.63;;;1.73;86.10
72116;BME280;59991;52.140;5.428;2023-04-27T02:28:08;102147.78;;;1.73;85.81
72116;BME280;59991;52.140;5.428;2023-04-27T02:28:40;102153.47;;;1.72;85.92
72116;BME280;59991;52.140;5.428;2023-04-27T02:29:12;102143.00;;;1.70;85.78
72116;BME280;59991;52.140;5.428;2023-04-27T02:29:44;102144.88;;;1.70;85.91
72116;BME280;59991;52.140;5.428;2023-04-27T02:30:16;102147.59;;;1.70;85.97
72116;BME280;59991;52.140;5.428;2023-04-27T02:30:48;102142.47;;;1.68;86.09
72116;BME280;59991;52.140;5.428;2023-04-27T02:31:19;102150.84;;;1.67;85.90
72116;BME280;59991;52.140;5.428;2023-04-27T02:31:51;102152.44;;;1.68;86.23
72116;BME280;59991;52.140;5.428;2023-04-27T02:32:22;102150.03;;;1.66;86.22
72116;BME280;59991;52.140;5.428;2023-04-27T02:32:54;102147.34;;;1.66;85.97
72116;BME280;59991;52.140;5.428;2023-04-27T02:33:25;102143.84;;;1.66;86.10
72116;BME280;59991;52.140;5.428;2023-04-27T02:33:57;102150.03;;;1.66;85.98
72116;BME280;59991;52.140;5.428;2023-04-27T02:34:28;102139.28;;;1.66;86.02
72116;BME280;59991;52.140;5.428;2023-04-27T02:35:00;102148.16;;;1.67;85.70
72116;BME280;59991;52.140;5.428;2023-04-27T02:35:32;102141.16;;;1.66;85.90
72116;BME280;59991;52.140;5.428;2023-04-27T02:36:04;102144.66;;;1.66;86.03
72116;BME280;59991;52.140;5.428;2023-04-27T02:36:35;102143.06;;;1.65;86.22
72116;BME280;59991;52.140;5.428;2023-04-27T02:37:07;102142.25;;;1.65;86.20
72116;BME280;59991;52.140;5.428;2023-04-27T02:37:39;102136.06;;;1.64;86.32
72116;BME280;59991;52.140;5.428;2023-04-27T02:38:10;102142.25;;;1.65;86.16
72116;BME280;59991;52.140;5.428;2023-04-27T02:38:41;102139.56;;;1.65;86.24
72116;BME280;59991;52.140;5.428;2023-04-27T02:39:13;102145.22;;;1.63;86.38
72116;BME280;59991;52.140;5.428;2023-04-27T02:39:45;102141.44;;;1.64;86.36
72116;BME280;59991;52.140;5.428;2023-04-27T02:40:17;102148.72;;;1.64;86.08
72116;BME280;59991;52.140;5.428;2023-04-27T02:40:55;102142.53;;;1.63;86.34
72116;BME280;59991;52.140;5.428;2023-04-27T02:41:26;102137.16;;;1.63;86.32
72116;BME280;59991;52.140;5.428;2023-04-27T02:41:58;102139.03;;;1.63;85.94
72116;BME280;59991;52.140;5.428;2023-04-27T02:42:30;102142.81;;;1.62;86.21
72116;BME280;59991;52.140;5.428;2023-04-27T02:43:01;102137.44;;;1.62;86.08
72116;BME280;59991;52.140;5.428;2023-04-27T02:43:33;102132.06;;;1.62;85.76
72116;BME280;59991;52.140;5.428;2023-04-27T02:44:04;102139.31;;;1.61;85.80
72116;BME280;59991;52.140;5.428;2023-04-27T02:44:35;102130.47;;;1.61;85.86
72116;BME280;59991;52.140;5.428;2023-04-27T02:45:07;102139.59;;;1.60;85.96
72116;BME280;59991;52.140;5.428;2023-04-27T02:45:39;102133.16;;;1.61;85.78
72116;BME280;59991;52.140;5.428;2023-04-27T02:46:10;102134.22;;;1.60;86.03
72116;BME280;59991;52.140;5.428;2023-04-27T02:46:42;102135.84;;;1.61;85.60
72116;BME280;59991;52.140;5.428;2023-04-27T02:47:13;102134.22;;;1.60;86.03
72116;BME280;59991;52.140;5.428;2023-04-27T02:47:45;102132.63;;;1.59;85.68
72116;BME280;59991;52.140;5.428;2023-04-27T02:48:16;102136.13;;;1.59;85.92
72116;BME280;59991;52.140;5.428;2023-04-27T02:48:48;102129.94;;;1.59;86.07